Pagrindinis puslapis
METAR-TAF:

METAR-TAF

Oro uostai :

Mendosa, Argentina

platuma: 32-50S, ilguma: 068-47W, Aukštis: 705 m

Dabartinis oras

Ataskaita buvo paskelbta 1 valandą ir 14 minutes, ne 05:00 UTC
Ramus vėjas
Temperatūra 15°C
Drėgmė 59%
Slėgis 1018 hPa
Matomumas 10 km arba daugiau
nėra debesų žemiau 1500 m ir nėra kamuolinių lietaus debesų

METAR: SAME 100500Z 00000KT CAVOK 15/07 Q1018

Laikas: 03:14 (06:14 UTC)

Prognozė

Ataskaita buvo paskelbta 1 valandą ir 14 minutes, ne 05:00 UTC
Prognozė galioja nuo 10 metu 06 UTC su 11 metu 06 UTC
Vėjas 3 kt nuo kintamojo kryptimis
Matomumas 10 km arba daugiau
nėra debesų žemiau 1500 m ir nėra kamuolinių lietaus debesų
Tapsmas
nuo 10 metu 07 UTC su 10 metu 09 UTC
Vėjas 10 kt iš Pietų
Tapsmas
nuo 10 metu 16 UTC su 10 metu 18 UTC
Vėjas 10 kt iš Šiaurės/Šiaurės Rytų

TAF: SAME 100500Z 1006/1106 VRB03KT CAVOK TX25/1020Z TN10/1010Z BECMG 1007/1009 18010KT BECMG 1016/1018 02010KT

Orai ataskaitas ir orų prognozės (METAR, TAF).

turimą stotys yra geltonos ir raudonos taškus žemėlapyje.

Perkelti pele per norėdami pamatyti stoties vardą.

Tada spustelėkite, norėdami matyti oro stebėjimo ir prognozės.

Norėdami pakeisti žemėlapį: spustelėkite ant žalios mygtukų su juodo kryžiaus žemyn,; žalią mygtuką su brūkšneliu, jei norite nutolinti; arba žalių rodyklių gretimoms žemėlapius.


METAR-TAF: